createdAt,value
2019-03-25T00:00:10.950Z,3.33
2019-03-25T00:02:40.333Z,3.80
2019-03-25T00:05:09.695Z,4.30
2019-03-25T00:07:39.063Z,3.77
2019-03-25T00:10:08.611Z,3.30
2019-03-25T00:12:37.969Z,3.50
2019-03-25T00:15:07.430Z,4.00
2019-03-25T00:17:36.799Z,3.37
2019-03-25T00:20:06.735Z,3.43
2019-03-25T00:22:36.082Z,4.23
2019-03-25T00:25:06.505Z,3.27
2019-03-25T00:27:35.879Z,3.30
2019-03-25T00:30:06.978Z,3.10
2019-03-25T00:32:36.350Z,3.47
2019-03-25T00:35:06.369Z,3.90
2019-03-25T00:37:35.781Z,3.83
2019-03-25T00:40:06.285Z,4.10
2019-03-25T00:42:35.667Z,3.63
2019-03-25T00:45:07.168Z,5.13
2019-03-25T00:47:36.527Z,5.20
2019-03-25T00:50:07.036Z,4.20
2019-03-25T00:52:36.432Z,4.37
2019-03-25T00:55:06.557Z,3.93
2019-03-25T00:57:35.939Z,4.80
2019-03-25T01:00:07.546Z,5.37
2019-03-25T01:02:36.921Z,5.50
2019-03-25T01:05:06.429Z,4.60
2019-03-25T01:07:35.871Z,4.57
2019-03-25T01:10:08.671Z,4.53
2019-03-25T01:12:38.029Z,4.50
2019-03-25T01:15:07.779Z,4.20
2019-03-25T01:17:37.143Z,4.60
2019-03-25T01:20:08.297Z,4.70
2019-03-25T01:22:37.715Z,4.73
2019-03-25T01:25:07.138Z,3.80
2019-03-25T01:27:36.524Z,4.17
2019-03-25T01:30:08.520Z,3.67
2019-03-25T01:32:37.906Z,4.17
2019-03-25T01:35:07.913Z,4.00
2019-03-25T01:37:37.296Z,3.40
2019-03-25T01:40:07.622Z,4.10
2019-03-25T01:42:37.047Z,4.30
2019-03-25T01:45:06.974Z,4.67
2019-03-25T01:47:36.344Z,3.80
2019-03-25T01:50:06.776Z,3.90
2019-03-25T01:52:36.133Z,4.27
2019-03-25T01:55:13.299Z,4.10
2019-03-25T01:57:36.875Z,5.03
2019-03-25T02:00:08.365Z,4.27
2019-03-25T02:02:37.795Z,4.37
2019-03-25T02:05:07.530Z,3.70
2019-03-25T02:07:36.888Z,4.47
2019-03-25T02:10:07.504Z,4.20
2019-03-25T02:12:36.882Z,4.40
2019-03-25T02:15:07.182Z,4.20
2019-03-25T02:17:36.589Z,4.03
2019-03-25T02:20:06.759Z,3.70
2019-03-25T02:22:36.262Z,3.60
2019-03-25T02:25:06.624Z,3.90
2019-03-25T02:27:36.018Z,4.27
2019-03-25T02:30:09.396Z,3.90
2019-03-25T02:32:38.844Z,3.97
2019-03-25T02:35:08.659Z,4.90
2019-03-25T02:37:37.964Z,4.27
2019-03-25T02:40:07.496Z,3.90
2019-03-25T02:42:36.857Z,4.70
2019-03-25T02:45:07.098Z,4.03
2019-03-25T02:47:36.459Z,4.13
2019-03-25T02:50:06.195Z,4.20
2019-03-25T02:52:35.564Z,3.90
2019-03-25T02:55:06.579Z,4.57
2019-03-25T02:57:35.960Z,4.03
2019-03-25T03:00:07.493Z,3.90
2019-03-25T03:02:36.875Z,3.67
2019-03-25T03:05:07.473Z,4.13
2019-03-25T03:07:36.927Z,4.00
2019-03-25T03:10:07.898Z,4.13
2019-03-25T03:12:37.297Z,4.30
2019-03-25T03:15:07.721Z,4.37
2019-03-25T03:17:37.154Z,3.83
2019-03-25T03:20:07.602Z,4.80
2019-03-25T03:22:36.989Z,4.93
2019-03-25T03:25:06.590Z,4.70
2019-03-25T03:27:36.237Z,4.27
2019-03-25T03:30:07.245Z,5.10
2019-03-25T03:32:36.617Z,4.90
2019-03-25T03:35:07.216Z,4.97
2019-03-25T03:37:36.664Z,4.70
2019-03-25T03:40:06.795Z,5.03
2019-03-25T03:42:36.237Z,4.83
2019-03-25T03:45:06.571Z,5.10
2019-03-25T03:47:37.582Z,5.33
2019-03-25T03:50:08.928Z,7.53
2019-03-25T03:52:38.864Z,4.93
2019-03-25T03:55:08.249Z,4.57
2019-03-25T03:57:37.824Z,5.63
2019-03-25T04:00:07.675Z,6.60
2019-03-25T04:02:37.055Z,5.13
2019-03-25T04:05:06.590Z,5.67
2019-03-25T04:07:35.965Z,5.57
2019-03-25T04:10:06.792Z,5.13
2019-03-25T04:12:36.176Z,5.37
2019-03-25T04:15:06.765Z,5.97
2019-03-25T04:17:36.208Z,5.20
2019-03-25T04:20:07.211Z,6.03
2019-03-25T04:22:36.579Z,5.87
2019-03-25T04:25:06.799Z,5.90
2019-03-25T04:27:36.226Z,5.93
2019-03-25T04:30:06.249Z,5.80
2019-03-25T04:32:35.637Z,5.33
2019-03-25T04:35:05.668Z,5.67
2019-03-25T04:37:35.119Z,5.77
2019-03-25T04:40:07.410Z,6.37
2019-03-25T04:42:36.841Z,6.10
2019-03-25T04:45:07.352Z,6.10
2019-03-25T04:47:36.769Z,6.40
2019-03-25T04:50:07.269Z,6.17
2019-03-25T04:52:36.662Z,8.63
2019-03-25T04:55:06.864Z,6.00
2019-03-25T04:57:36.446Z,7.07
2019-03-25T05:00:06.699Z,7.10
2019-03-25T05:02:36.235Z,6.23
2019-03-25T05:05:07.689Z,5.67
2019-03-25T05:07:37.194Z,6.40
2019-03-25T05:10:07.636Z,5.67
2019-03-25T05:12:37.136Z,6.17
2019-03-25T05:15:07.012Z,5.70
2019-03-25T05:17:36.386Z,6.13
2019-03-25T05:20:06.105Z,6.17
2019-03-25T05:22:35.484Z,5.90
2019-03-25T05:25:06.405Z,6.27
2019-03-25T05:27:35.818Z,5.93
2019-03-25T05:30:07.219Z,6.43
2019-03-25T05:32:36.667Z,6.30
2019-03-25T05:35:07.506Z,7.17
2019-03-25T05:37:36.965Z,6.57
2019-03-25T05:40:06.397Z,8.17
2019-03-25T05:42:35.882Z,7.03
2019-03-25T05:45:06.976Z,7.27
2019-03-25T05:47:36.445Z,6.47
2019-03-25T05:50:09.107Z,7.50
2019-03-25T05:52:38.721Z,6.40
2019-03-25T05:55:08.185Z,6.17
2019-03-25T05:57:37.547Z,6.77
2019-03-25T06:00:07.485Z,6.73
2019-03-25T06:02:36.814Z,6.80
2019-03-25T06:05:07.308Z,7.23
2019-03-25T06:07:36.677Z,8.43
2019-03-25T06:10:06.900Z,6.50
2019-03-25T06:12:36.271Z,6.80
2019-03-25T06:15:06.809Z,5.97
2019-03-25T06:17:36.510Z,7.03
2019-03-25T06:20:07.461Z,5.47
2019-03-25T06:22:36.905Z,6.43
2019-03-25T06:25:07.427Z,6.27
2019-03-25T06:27:37.283Z,6.70
2019-03-25T06:30:08.869Z,6.63
2019-03-25T06:32:38.303Z,5.80
2019-03-25T06:35:09.046Z,6.37
2019-03-25T06:37:38.751Z,7.37
2019-03-25T06:40:08.614Z,7.27
2019-03-25T06:42:37.997Z,5.93
2019-03-25T06:45:08.905Z,6.43
2019-03-25T06:47:38.276Z,7.00
2019-03-25T06:50:08.979Z,7.03
2019-03-25T06:52:38.362Z,6.97
2019-03-25T06:55:08.478Z,6.40
2019-03-25T06:57:38.804Z,6.53
2019-03-25T07:00:09.658Z,6.23
2019-03-25T07:02:39.043Z,6.37
2019-03-25T07:05:08.750Z,6.87
2019-03-25T07:07:38.208Z,6.80
2019-03-25T07:10:07.839Z,7.23
2019-03-25T07:12:37.483Z,6.73
2019-03-25T07:15:08.982Z,6.10
2019-03-25T07:17:38.490Z,6.53
2019-03-25T07:20:09.752Z,7.13
2019-03-25T07:22:39.146Z,6.37
2019-03-25T07:25:08.593Z,7.23
2019-03-25T07:27:38.011Z,6.10
2019-03-25T07:30:08.236Z,6.47
2019-03-25T07:32:37.612Z,7.00
2019-03-25T07:35:08.258Z,6.37
2019-03-25T07:37:37.637Z,6.60
2019-03-25T07:40:08.738Z,6.77
2019-03-25T07:42:38.179Z,7.43
2019-03-25T07:45:09.529Z,7.10
2019-03-25T07:47:38.913Z,7.13
2019-03-25T07:50:08.696Z,7.50
2019-03-25T07:52:38.205Z,7.07
2019-03-25T07:55:07.731Z,7.83
2019-03-25T07:57:47.787Z,6.67
2019-03-25T08:00:13.869Z,6.60
2019-03-25T08:02:42.687Z,6.80
2019-03-25T08:05:12.379Z,6.00
2019-03-25T08:07:41.758Z,6.50
2019-03-25T08:10:11.365Z,6.57
2019-03-25T08:12:40.863Z,6.50
2019-03-25T08:15:10.470Z,6.80
2019-03-25T08:17:39.882Z,7.37
2019-03-25T08:20:11.156Z,6.93
2019-03-25T08:22:40.590Z,6.00
2019-03-25T08:25:10.132Z,6.10
2019-03-25T08:27:39.493Z,5.47
2019-03-25T08:30:09.671Z,5.40
2019-03-25T08:32:39.036Z,6.10
2019-03-25T08:35:10.163Z,5.77
2019-03-25T08:37:39.531Z,6.30
2019-03-25T08:40:09.848Z,7.13
2019-03-25T08:42:39.223Z,6.83
2019-03-25T08:45:09.059Z,6.60
2019-03-25T08:47:38.472Z,5.80
2019-03-25T08:50:08.792Z,6.40
2019-03-25T08:52:38.186Z,5.33
2019-03-25T08:55:08.178Z,5.80
2019-03-25T08:57:37.560Z,4.67
2019-03-25T09:00:09.739Z,5.03
2019-03-25T09:02:39.112Z,4.60
2019-03-25T09:05:08.919Z,4.83
2019-03-25T09:07:38.296Z,5.73
2019-03-25T09:10:09.623Z,4.50
2019-03-25T09:12:39.139Z,4.37
2019-03-25T09:15:10.623Z,4.77
2019-03-25T09:17:40.102Z,5.00
2019-03-25T09:20:10.405Z,4.00
2019-03-25T09:22:39.924Z,3.63
2019-03-25T09:25:09.734Z,3.80
2019-03-25T09:27:39.112Z,4.10
2019-03-25T09:30:11.421Z,3.70
2019-03-25T09:32:40.848Z,3.47
2019-03-25T09:35:10.570Z,3.50
2019-03-25T09:37:40.106Z,3.00
2019-03-25T09:40:11.089Z,2.80
2019-03-25T09:42:40.518Z,3.07
2019-03-25T09:45:10.366Z,2.73
2019-03-25T09:47:39.811Z,3.00
2019-03-25T09:50:09.974Z,2.73
2019-03-25T09:52:39.402Z,3.10
2019-03-25T09:55:08.995Z,2.70
2019-03-25T09:57:38.396Z,3.73
2019-03-25T10:00:10.899Z,2.23
2019-03-25T10:02:40.227Z,2.20
2019-03-25T10:05:09.894Z,2.13
2019-03-25T10:07:39.270Z,2.90
2019-03-25T10:10:09.214Z,2.57
2019-03-25T10:12:38.646Z,1.60
2019-03-25T10:15:09.653Z,2.20
2019-03-25T10:17:39.100Z,2.20
2019-03-25T10:20:08.807Z,2.90
2019-03-25T10:22:38.702Z,1.83
2019-03-25T10:25:08.913Z,2.40
2019-03-25T10:27:38.388Z,2.33
2019-03-25T10:30:13.562Z,3.87
2019-03-25T10:32:43.121Z,2.70
2019-03-25T10:35:13.462Z,2.07
2019-03-25T10:37:42.932Z,2.60
2019-03-25T10:40:13.131Z,2.53
2019-03-25T10:42:42.513Z,2.40
2019-03-25T10:45:12.446Z,2.30
2019-03-25T10:47:41.858Z,2.63
2019-03-25T10:50:12.871Z,1.83
2019-03-25T10:52:42.246Z,2.30
2019-03-25T10:55:11.711Z,2.80
2019-03-25T10:57:41.093Z,2.07
2019-03-25T11:00:12.346Z,2.50
2019-03-25T11:02:41.869Z,1.90
2019-03-25T11:05:11.350Z,2.10
2019-03-25T11:10:10.579Z,1.63
2019-03-25T11:12:39.995Z,1.90
2019-03-25T11:15:09.906Z,1.67
2019-03-25T11:17:39.284Z,1.90
2019-03-25T11:20:09.576Z,1.80
2019-03-25T11:22:39.014Z,2.23
2019-03-25T11:25:09.041Z,1.77
2019-03-25T11:27:38.445Z,1.83
2019-03-25T11:30:09.993Z,1.80
2019-03-25T11:32:39.318Z,1.63
2019-03-25T11:35:09.638Z,2.07
2019-03-25T11:37:39.035Z,1.60
2019-03-25T11:40:10.013Z,1.77
2019-03-25T11:42:39.395Z,2.00
2019-03-25T11:45:10.459Z,1.70
2019-03-25T11:47:39.824Z,2.37
2019-03-25T11:50:10.895Z,1.90
2019-03-25T11:52:40.363Z,2.00
2019-03-25T11:55:10.068Z,2.10
2019-03-25T11:57:39.351Z,1.70
2019-03-25T12:00:09.189Z,2.00
2019-03-25T12:02:38.618Z,1.30
2019-03-25T12:05:08.219Z,1.90
2019-03-25T12:07:37.937Z,2.00
2019-03-25T12:10:07.800Z,1.90
2019-03-25T12:12:37.176Z,1.77
2019-03-25T12:15:08.382Z,1.90
2019-03-25T12:17:37.686Z,2.40
2019-03-25T12:20:07.922Z,2.23
2019-03-25T12:22:37.384Z,2.40
2019-03-25T12:25:07.600Z,2.30
2019-03-25T12:27:37.348Z,2.13
2019-03-25T12:30:09.119Z,2.47
2019-03-25T12:32:38.463Z,2.47
2019-03-25T12:35:08.538Z,2.93
2019-03-25T12:37:38.015Z,2.90
2019-03-25T12:40:08.005Z,2.80
2019-03-25T12:42:37.557Z,3.00
2019-03-25T12:45:07.701Z,3.50
2019-03-25T12:47:37.058Z,3.00
2019-03-25T12:50:07.669Z,3.20
2019-03-25T12:52:37.020Z,2.20
2019-03-25T12:55:06.557Z,1.33
2019-03-25T12:57:35.936Z,1.43
2019-03-25T13:00:07.200Z,1.53
2019-03-25T13:02:36.639Z,1.50
2019-03-25T13:05:06.891Z,1.20
2019-03-25T13:07:36.249Z,1.77
2019-03-25T13:10:06.316Z,1.40
2019-03-25T13:12:35.769Z,1.30
2019-03-25T13:15:06.949Z,1.37
2019-03-25T13:17:36.336Z,1.30
2019-03-25T13:20:06.594Z,1.13
2019-03-25T13:22:36.105Z,1.07
2019-03-25T13:25:06.003Z,1.50
2019-03-25T13:27:35.395Z,1.90
2019-03-25T13:30:07.860Z,1.40
2019-03-25T13:32:39.430Z,1.20
2019-03-25T13:35:10.012Z,1.67
2019-03-25T13:37:39.486Z,1.30
2019-03-25T13:40:09.473Z,1.47
2019-03-25T13:42:38.927Z,1.83
2019-03-25T13:45:08.529Z,1.40
2019-03-25T13:47:37.903Z,1.33
2019-03-25T13:50:07.481Z,1.57
2019-03-25T13:52:36.909Z,1.87
2019-03-25T13:55:06.719Z,2.00
2019-03-25T13:57:36.083Z,1.80
2019-03-25T14:00:07.689Z,2.93
2019-03-25T14:02:37.048Z,2.40
2019-03-25T14:05:07.304Z,1.63
2019-03-25T14:07:38.658Z,1.53
2019-03-25T14:10:09.265Z,1.33
2019-03-25T14:12:38.647Z,1.83
2019-03-25T14:15:09.011Z,1.80
2019-03-25T14:17:38.423Z,2.17
2019-03-25T14:20:09.971Z,2.37
2019-03-25T14:22:39.335Z,2.53
2019-03-25T14:25:09.119Z,2.57
2019-03-25T14:27:38.576Z,2.30
2019-03-25T14:30:14.367Z,1.80
2019-03-25T14:32:40.287Z,2.30
2019-03-25T14:35:09.780Z,2.27
2019-03-25T14:37:39.180Z,1.70
2019-03-25T14:40:08.870Z,1.63
2019-03-25T14:42:38.272Z,2.10
2019-03-25T14:45:09.188Z,2.10
2019-03-25T14:47:38.578Z,2.17
2019-03-25T14:50:08.286Z,2.30
2019-03-25T14:52:37.595Z,2.10
2019-03-25T14:55:10.479Z,3.13
2019-03-25T14:57:39.880Z,2.37
2019-03-25T15:00:10.953Z,2.63
2019-03-25T15:02:40.326Z,2.20
2019-03-25T15:05:10.339Z,1.63
2019-03-25T15:07:39.721Z,1.30
2019-03-25T15:10:09.430Z,1.50
2019-03-25T15:12:38.795Z,1.43
2019-03-25T15:15:09.715Z,1.87
2019-03-25T15:17:39.178Z,1.43
2019-03-25T15:20:11.890Z,1.73
2019-03-25T15:22:41.247Z,6.27
2019-03-25T15:25:10.992Z,1.67
2019-03-25T15:27:40.356Z,1.60
2019-03-25T15:30:10.394Z,1.53
2019-03-25T15:32:39.775Z,1.60
2019-03-25T15:35:09.526Z,1.40
2019-03-25T15:37:38.989Z,1.40
2019-03-25T15:40:10.704Z,1.10
2019-03-25T15:42:40.230Z,1.50
2019-03-25T15:45:10.282Z,1.10
2019-03-25T15:47:40.475Z,1.60
2019-03-25T15:50:11.273Z,1.30
2019-03-25T15:52:42.345Z,1.57
2019-03-25T15:55:12.251Z,1.40
2019-03-25T15:57:41.755Z,1.37
2019-03-25T16:00:16.757Z,1.83
2019-03-25T16:02:46.284Z,1.70
2019-03-25T16:05:16.472Z,1.57
2019-03-25T16:07:46.010Z,2.53
2019-03-25T16:10:17.049Z,1.60
2019-03-25T16:12:46.950Z,1.93
2019-03-25T16:15:19.432Z,2.33
2019-03-25T16:17:48.834Z,2.20
2019-03-25T16:20:18.289Z,2.27
2019-03-25T16:22:47.695Z,2.80
2019-03-25T16:25:20.237Z,2.10
2019-03-25T16:27:49.587Z,2.30
2019-03-25T16:30:19.785Z,2.57
2019-03-25T16:32:49.190Z,2.43
2019-03-25T16:35:18.842Z,1.87
2019-03-25T16:37:48.225Z,2.23
2019-03-25T16:40:17.788Z,2.13
2019-03-25T16:42:47.222Z,2.27
2019-03-25T16:45:16.657Z,3.87
2019-03-25T16:47:46.084Z,2.97
2019-03-25T16:50:15.511Z,2.30
2019-03-25T16:52:44.990Z,2.40
2019-03-25T16:55:15.631Z,1.53
2019-03-25T16:57:45.822Z,0.83
2019-03-25T17:00:26.583Z,1.20
2019-03-25T17:02:46.551Z,1.00
2019-03-25T17:05:15.933Z,1.30
2019-03-25T17:07:45.352Z,1.13
2019-03-25T17:10:14.843Z,1.43
2019-03-25T17:12:44.273Z,2.10
2019-03-25T17:15:13.912Z,2.50
2019-03-25T17:17:43.284Z,1.63
2019-03-25T17:20:12.884Z,1.50
2019-03-25T17:22:44.989Z,1.43
2019-03-25T17:25:15.516Z,1.90
2019-03-25T17:27:44.891Z,2.10
2019-03-25T17:30:15.920Z,1.63
2019-03-25T17:32:45.301Z,2.23
2019-03-25T17:35:14.790Z,2.70
2019-03-25T17:37:44.245Z,2.80
2019-03-25T17:40:14.042Z,2.07
2019-03-25T17:42:43.590Z,1.80
2019-03-25T17:45:13.290Z,2.30
2019-03-25T17:47:42.688Z,2.30
2019-03-25T17:50:12.542Z,2.50
2019-03-25T17:52:42.010Z,2.87
2019-03-25T17:55:11.494Z,2.97
2019-03-25T17:57:40.947Z,2.20
2019-03-25T18:00:13.442Z,2.10
2019-03-25T18:02:42.813Z,1.60
2019-03-25T18:05:12.641Z,2.10
2019-03-25T18:07:42.016Z,1.93
2019-03-25T18:10:11.633Z,1.87
2019-03-25T18:12:41.062Z,2.53
2019-03-25T18:15:11.212Z,1.67
2019-03-25T18:17:40.593Z,2.07
2019-03-25T18:20:18.675Z,2.10
2019-03-25T18:22:41.219Z,2.00
2019-03-25T18:25:10.662Z,2.30
2019-03-25T18:27:40.115Z,2.10
2019-03-25T18:30:10.164Z,2.10
2019-03-25T18:32:39.653Z,2.40
2019-03-25T18:35:10.595Z,2.40
2019-03-25T18:37:39.992Z,2.57
2019-03-25T18:40:09.505Z,3.20
2019-03-25T18:42:38.900Z,3.57
2019-03-25T18:45:09.886Z,2.43
2019-03-25T18:47:39.273Z,3.30
2019-03-25T18:50:08.781Z,2.70
2019-03-25T18:52:38.245Z,3.47
2019-03-25T18:55:07.979Z,3.33
2019-03-25T18:57:37.488Z,3.17
2019-03-25T19:00:12.207Z,4.10
2019-03-25T19:02:41.648Z,3.70
2019-03-25T19:05:11.141Z,3.50
2019-03-25T19:07:43.207Z,3.90
2019-03-25T19:10:15.702Z,4.20
2019-03-25T19:12:45.106Z,3.73
2019-03-25T19:15:17.899Z,4.40
2019-03-25T19:17:50.606Z,3.80
2019-03-25T19:20:22.612Z,4.27
2019-03-25T19:22:58.202Z,4.50
2019-03-25T19:25:33.168Z,3.80
2019-03-25T19:28:03.703Z,4.00
2019-03-25T19:30:33.832Z,4.43
2019-03-25T19:33:03.924Z,4.20
2019-03-25T19:35:33.438Z,4.30
2019-03-25T19:38:02.856Z,4.50
2019-03-25T19:40:32.315Z,5.70
2019-03-25T19:43:01.807Z,5.53
2019-03-25T19:45:31.206Z,5.20
2019-03-25T19:48:00.632Z,5.37
2019-03-25T19:50:30.057Z,5.47
2019-03-25T19:52:59.526Z,6.17
2019-03-25T19:55:28.918Z,5.90
2019-03-25T19:57:58.361Z,5.63
2019-03-25T20:00:38.906Z,4.87
2019-03-25T20:03:08.419Z,4.73
2019-03-25T20:05:37.934Z,4.87
2019-03-25T20:08:07.405Z,4.40
2019-03-25T20:10:37.480Z,5.03
2019-03-25T20:13:07.200Z,4.17
2019-03-25T20:15:45.879Z,5.00
2019-03-25T20:18:11.827Z,5.33
2019-03-25T20:20:41.333Z,5.07
2019-03-25T20:23:10.927Z,6.13
2019-03-25T20:25:40.411Z,5.90
2019-03-25T20:28:09.997Z,5.70
2019-03-25T20:30:39.637Z,5.53
2019-03-25T20:33:09.297Z,5.30
2019-03-25T20:35:38.803Z,6.30
2019-03-25T20:38:08.351Z,6.17
2019-03-25T20:40:38.374Z,5.90
2019-03-25T20:43:07.897Z,5.23
2019-03-25T20:45:37.398Z,6.30
2019-03-25T20:48:06.864Z,6.70
2019-03-25T20:50:36.794Z,7.67
2019-03-25T20:53:08.450Z,5.93
2019-03-25T20:55:39.103Z,6.27
2019-03-25T20:58:11.489Z,5.40
2019-03-25T21:00:54.334Z,5.37
2019-03-25T21:03:24.090Z,6.10
2019-03-25T21:05:53.851Z,6.30
2019-03-25T21:08:23.672Z,5.40
2019-03-25T21:10:53.658Z,7.13
2019-03-25T21:13:24.227Z,7.13
2019-03-25T21:15:55.241Z,5.87
2019-03-25T21:18:26.614Z,5.77
2019-03-25T21:20:56.566Z,5.53
2019-03-25T21:23:26.635Z,5.40
2019-03-25T21:25:56.419Z,4.17
2019-03-25T21:28:26.144Z,5.10
2019-03-25T21:30:56.067Z,4.73
2019-03-25T21:33:27.779Z,5.43
2019-03-25T21:35:59.875Z,5.40
2019-03-25T21:38:29.549Z,4.77
2019-03-25T21:40:59.451Z,5.03
2019-03-25T21:43:29.314Z,4.40
2019-03-25T21:45:59.590Z,3.70
2019-03-25T21:48:30.763Z,3.50
2019-03-25T21:51:00.600Z,3.20
2019-03-25T21:53:31.531Z,3.50
2019-03-25T21:56:01.857Z,3.30
2019-03-25T21:58:31.941Z,4.10
2019-03-25T22:01:02.275Z,3.60
2019-03-25T22:03:32.162Z,4.40
2019-03-25T22:06:02.019Z,4.47
2019-03-25T22:08:33.312Z,3.80
2019-03-25T22:11:03.148Z,4.23
2019-03-25T22:13:32.568Z,3.37
2019-03-25T22:16:01.936Z,3.90
2019-03-25T22:18:31.333Z,3.20
2019-03-25T22:21:00.762Z,3.70
2019-03-25T22:23:30.250Z,3.63
2019-03-25T22:25:59.721Z,3.70
2019-03-25T22:28:29.092Z,3.90
2019-03-25T22:30:58.475Z,3.87
2019-03-25T22:33:27.888Z,3.93
2019-03-25T22:35:57.268Z,3.93
2019-03-25T22:38:26.860Z,3.80
2019-03-25T22:40:56.248Z,3.90
2019-03-25T22:43:25.678Z,4.40
2019-03-25T22:45:55.125Z,3.80
2019-03-25T22:48:24.559Z,3.83
2019-03-25T22:50:53.943Z,4.07
2019-03-25T22:53:23.309Z,4.70
2019-03-25T22:55:52.673Z,4.40
2019-03-25T22:58:22.057Z,4.13
2019-03-25T23:00:51.689Z,5.27
2019-03-25T23:03:21.155Z,3.90
2019-03-25T23:05:50.600Z,4.00
2019-03-25T23:08:19.962Z,4.03
2019-03-25T23:10:49.372Z,4.10
2019-03-25T23:13:18.798Z,3.83
2019-03-25T23:15:48.189Z,4.73
2019-03-25T23:18:17.570Z,4.63
2019-03-25T23:20:46.954Z,4.20
2019-03-25T23:23:16.341Z,4.17
2019-03-25T23:25:45.733Z,4.50
2019-03-25T23:28:15.165Z,4.30
2019-03-25T23:30:44.544Z,4.20
2019-03-25T23:33:13.917Z,3.70
2019-03-25T23:35:43.305Z,3.67
2019-03-25T23:38:12.693Z,3.53
2019-03-25T23:40:42.124Z,3.60
2019-03-25T23:43:11.506Z,4.03
2019-03-25T23:45:40.899Z,4.23
2019-03-25T23:48:10.263Z,3.23
2019-03-25T23:50:39.655Z,3.60
2019-03-25T23:53:09.034Z,3.97
2019-03-25T23:55:38.501Z,3.30
2019-03-25T23:58:07.895Z,3.73
